createdAt,value
2022-09-10T00:09:45.359Z,99355.45
2022-09-10T00:19:51.235Z,99345.81
2022-09-10T00:29:57.348Z,99335.53
2022-09-10T00:40:03.571Z,99326.23
2022-09-10T00:50:18.629Z,99322.13
2022-09-10T01:00:24.660Z,99326.66
2022-09-10T01:10:34.534Z,99314.73
2022-09-10T01:20:56.162Z,99303.79
2022-09-10T01:31:11.410Z,99295.38
2022-09-10T01:41:17.199Z,99287.87
2022-09-10T01:51:36.983Z,99286.14
2022-09-10T02:01:48.979Z,99276.08
2022-09-10T02:11:56.328Z,99270.73
2022-09-10T02:22:02.007Z,99276.29
2022-09-10T02:32:08.272Z,99274.52
2022-09-10T02:42:17.617Z,99274.92
2022-09-10T02:52:23.261Z,99273.17
2022-09-10T03:02:28.978Z,99278.44
2022-09-10T03:12:34.629Z,99277.71
2022-09-10T03:22:40.281Z,99270.08
2022-09-10T03:32:45.900Z,99260.65
2022-09-10T03:42:51.529Z,99249.11
2022-09-10T03:52:57.125Z,99241.23
2022-09-10T04:03:02.835Z,99228.04
2022-09-10T04:13:09.284Z,99222.21
2022-09-10T04:23:14.917Z,99231.98
2022-09-10T04:33:20.657Z,99218.45
2022-09-10T04:43:26.613Z,99220.04
2022-09-10T04:53:32.463Z,99222.27
2022-09-10T05:03:38.180Z,99219.45
2022-09-10T05:13:43.993Z,99210.23
2022-09-10T05:23:49.616Z,99199.79
2022-09-10T05:33:55.877Z,99207.19
2022-09-10T05:44:02.007Z,99195.71
2022-09-10T05:54:08.203Z,99192.56
2022-09-10T06:04:13.825Z,99193.72
2022-09-10T06:14:20.399Z,99200.24
2022-09-10T06:24:27.055Z,99201.09
2022-09-10T06:34:32.675Z,99203.02
2022-09-10T06:44:39.553Z,99201.91
2022-09-10T06:54:45.504Z,99219.30
2022-09-10T07:04:51.174Z,99226.13
2022-09-10T07:14:56.780Z,99226.02
2022-09-10T07:25:02.363Z,99231.54
2022-09-10T07:35:09.393Z,99232.86
2022-09-10T07:45:16.273Z,99233.27
2022-09-10T07:55:23.364Z,99223.67
2022-09-10T08:05:29.904Z,99225.18
2022-09-10T08:15:36.131Z,99219.05
2022-09-10T08:25:49.962Z,99207.54
2022-09-10T08:36:00.406Z,99213.87
2022-09-10T08:46:15.191Z,99217.51
2022-09-10T08:56:23.384Z,99220.83
2022-09-10T09:06:35.701Z,99220.56
2022-09-10T09:16:57.263Z,99210.61
2022-09-10T09:27:10.173Z,99200.76
2022-09-10T09:37:22.408Z,99184.95
2022-09-10T09:47:28.135Z,99169.38
2022-09-10T09:57:33.904Z,99160.13
2022-09-10T10:07:40.121Z,99165.77
2022-09-10T10:17:45.818Z,99166.17
2022-09-10T10:27:54.025Z,99164.51
2022-09-10T10:38:17.427Z,99160.26
2022-09-10T10:48:31.905Z,99160.38
2022-09-10T10:59:00.801Z,99162.52
2022-09-10T11:09:14.031Z,99161.73
2022-09-10T11:19:28.548Z,99156.77
2022-09-10T11:29:41.623Z,99157.86
2022-09-10T11:39:52.506Z,99153.83
2022-09-10T11:50:02.833Z,99143.42
2022-09-10T12:00:16.239Z,99128.15
2022-09-10T12:10:31.794Z,99126.21
2022-09-10T12:20:43.119Z,99126.64
2022-09-10T12:31:01.264Z,99119.80
2022-09-10T12:41:12.314Z,99113.45
2022-09-10T12:51:32.032Z,99105.83
2022-09-10T13:01:46.412Z,99104.25
2022-09-10T13:11:55.625Z,99099.66
2022-09-10T13:22:01.465Z,99095.84
2022-09-10T13:32:15.059Z,99082.00
2022-09-10T13:42:35.734Z,99069.64
2022-09-10T13:52:45.278Z,99067.56
2022-09-10T14:02:52.826Z,99057.32
2022-09-10T14:13:00.276Z,99053.61
2022-09-10T14:23:08.116Z,99046.35
2022-09-10T14:33:30.866Z,99040.85
2022-09-10T14:43:39.007Z,99033.49
2022-09-10T14:53:45.878Z,99032.55
2022-09-10T15:03:51.553Z,99031.34
2022-09-10T15:13:59.403Z,99025.80
2022-09-10T15:24:05.927Z,99027.30
2022-09-10T15:34:12.619Z,99029.17
2022-09-10T15:44:18.382Z,99027.79
2022-09-10T15:54:24.167Z,99032.83
2022-09-10T16:04:33.860Z,99047.39
2022-09-10T16:14:44.538Z,99052.95
2022-09-10T16:24:50.248Z,99057.20
2022-09-10T16:34:56.169Z,99055.62
2022-09-10T16:45:01.752Z,99051.73
2022-09-10T16:55:08.793Z,99049.51
2022-09-10T17:05:14.454Z,99040.41
2022-09-10T17:15:20.382Z,99037.02
2022-09-10T17:25:26.003Z,99039.89
2022-09-10T17:35:32.459Z,99047.55
2022-09-10T17:45:40.734Z,99046.66
2022-09-10T17:55:44.874Z,99051.45
2022-09-10T18:05:50.461Z,99045.70
2022-09-10T18:15:56.131Z,99040.09
2022-09-10T18:26:02.252Z,99044.20
2022-09-10T18:36:15.457Z,99039.39
2022-09-10T18:46:23.761Z,99044.66
2022-09-10T18:56:29.929Z,99054.11
2022-09-10T19:06:38.055Z,99057.02
2022-09-10T19:16:43.788Z,99059.16
2022-09-10T19:26:49.466Z,99055.89
2022-09-10T19:36:55.286Z,99054.05
2022-09-10T19:47:01.044Z,99044.80
2022-09-10T19:57:06.965Z,99037.70
2022-09-10T20:07:12.877Z,99029.91
2022-09-10T20:17:18.570Z,99024.20
2022-09-10T20:27:24.943Z,99024.34
2022-09-10T20:37:30.611Z,99022.66
2022-09-10T20:47:42.970Z,99020.02
2022-09-10T20:57:48.980Z,99018.23
2022-09-10T21:07:54.765Z,99012.73
2022-09-10T21:18:00.436Z,99010.50
2022-09-10T21:28:06.468Z,99007.96
2022-09-10T21:38:12.706Z,99007.25
2022-09-10T21:48:18.351Z,99007.98
2022-09-10T21:58:24.457Z,99011.13
2022-09-10T22:08:30.114Z,99017.94
2022-09-10T22:18:36.269Z,99018.21
2022-09-10T22:28:42.728Z,99020.16
2022-09-10T22:38:51.656Z,99012.57
2022-09-10T22:48:57.889Z,99009.41
2022-09-10T22:59:04.029Z,99009.29
2022-09-10T23:09:12.869Z,99004.12
2022-09-10T23:19:20.152Z,99004.48
2022-09-10T23:29:25.807Z,99007.81
2022-09-10T23:39:31.629Z,99002.80
2022-09-10T23:49:37.283Z,98996.31
2022-09-10T23:59:42.914Z,98989.39
